sensor_id;sensor_type;location;lat;lon;timestamp;P1;durP1;ratioP1;P2;durP2;ratioP2
48268;SDS011;34088;52.232;5.196;2023-12-22T00:01:45;9.57;;;1.43;;
48268;SDS011;34088;52.232;5.196;2023-12-22T00:04:10;14.97;;;2.17;;
48268;SDS011;34088;52.232;5.196;2023-12-22T00:06:36;8.80;;;2.00;;
48268;SDS011;34088;52.232;5.196;2023-12-22T00:09:01;9.85;;;2.05;;
48268;SDS011;34088;52.232;5.196;2023-12-22T00:11:26;8.70;;;1.53;;
48268;SDS011;34088;52.232;5.196;2023-12-22T00:13:52;9.77;;;1.33;;
48268;SDS011;34088;52.232;5.196;2023-12-22T00:16:17;8.97;;;1.50;;
48268;SDS011;34088;52.232;5.196;2023-12-22T01:22:03;15.10;;;2.50;;
48268;SDS011;34088;52.232;5.196;2023-12-22T01:24:28;13.50;;;2.25;;
48268;SDS011;34088;52.232;5.196;2023-12-22T01:26:54;18.63;;;2.60;;
48268;SDS011;34088;52.232;5.196;2023-12-22T01:29:19;14.70;;;2.50;;
48268;SDS011;34088;52.232;5.196;2023-12-22T01:31:44;14.23;;;2.20;;
48268;SDS011;34088;52.232;5.196;2023-12-22T01:34:10;20.58;;;3.95;;
48268;SDS011;34088;52.232;5.196;2023-12-22T01:36:35;13.73;;;2.30;;
48268;SDS011;34088;52.232;5.196;2023-12-22T01:39:01;17.13;;;3.13;;
48268;SDS011;34088;52.232;5.196;2023-12-22T01:41:26;14.30;;;2.72;;
48268;SDS011;34088;52.232;5.196;2023-12-22T01:43:52;15.77;;;2.80;;
48268;SDS011;34088;52.232;5.196;2023-12-22T01:46:17;22.10;;;3.20;;
48268;SDS011;34088;52.232;5.196;2023-12-22T01:51:08;16.90;;;2.67;;
48268;SDS011;34088;52.232;5.196;2023-12-22T01:53:34;16.27;;;2.60;;
48268;SDS011;34088;52.232;5.196;2023-12-22T01:56:00;15.23;;;2.83;;
48268;SDS011;34088;52.232;5.196;2023-12-22T01:58:27;18.40;;;3.22;;
48268;SDS011;34088;52.232;5.196;2023-12-22T02:00:56;20.73;;;3.00;;
48268;SDS011;34088;52.232;5.196;2023-12-22T02:03:21;21.80;;;3.30;;
48268;SDS011;34088;52.232;5.196;2023-12-22T02:05:47;25.20;;;4.15;;
48268;SDS011;34088;52.232;5.196;2023-12-22T02:08:12;19.27;;;3.47;;
48268;SDS011;34088;52.232;5.196;2023-12-22T02:10:40;20.65;;;3.30;;
48268;SDS011;34088;52.232;5.196;2023-12-22T02:13:06;25.90;;;3.50;;
48268;SDS011;34088;52.232;5.196;2023-12-22T02:15:31;15.98;;;3.03;;
48268;SDS011;34088;52.232;5.196;2023-12-22T02:17:59;23.40;;;3.80;;
48268;SDS011;34088;52.232;5.196;2023-12-22T02:20:30;26.67;;;3.95;;
48268;SDS011;34088;52.232;5.196;2023-12-22T02:22:55;31.90;;;4.18;;
48268;SDS011;34088;52.232;5.196;2023-12-22T02:25:20;27.17;;;4.40;;
48268;SDS011;34088;52.232;5.196;2023-12-22T02:35:29;25.58;;;4.15;;
48268;SDS011;34088;52.232;5.196;2023-12-22T02:37:57;28.25;;;4.05;;
48268;SDS011;34088;52.232;5.196;2023-12-22T02:40:23;24.45;;;4.15;;
48268;SDS011;34088;52.232;5.196;2023-12-22T02:42:49;27.40;;;3.53;;
48268;SDS011;34088;52.232;5.196;2023-12-22T02:45:17;26.85;;;4.03;;
48268;SDS011;34088;52.232;5.196;2023-12-22T02:47:44;26.05;;;4.15;;
48268;SDS011;34088;52.232;5.196;2023-12-22T02:52:35;22.33;;;3.70;;
48268;SDS011;34088;52.232;5.196;2023-12-22T02:55:00;28.67;;;4.97;;
48268;SDS011;34088;52.232;5.196;2023-12-22T02:57:26;22.88;;;3.15;;
48268;SDS011;34088;52.232;5.196;2023-12-22T02:59:52;24.90;;;3.47;;
48268;SDS011;34088;52.232;5.196;2023-12-22T03:02:17;28.03;;;4.50;;
48268;SDS011;34088;52.232;5.196;2023-12-22T03:04:42;27.97;;;4.57;;
48268;SDS011;34088;52.232;5.196;2023-12-22T03:07:07;22.65;;;3.83;;
48268;SDS011;34088;52.232;5.196;2023-12-22T03:09:33;23.05;;;3.85;;
48268;SDS011;34088;52.232;5.196;2023-12-22T03:14:28;21.50;;;3.25;;
48268;SDS011;34088;52.232;5.196;2023-12-22T03:17:00;23.55;;;3.45;;
48268;SDS011;34088;52.232;5.196;2023-12-22T03:19:26;21.33;;;3.30;;
48268;SDS011;34088;52.232;5.196;2023-12-22T03:21:51;22.77;;;3.95;;
48268;SDS011;34088;52.232;5.196;2023-12-22T03:24:17;21.55;;;3.40;;
48268;SDS011;34088;52.232;5.196;2023-12-22T03:26:44;24.33;;;3.45;;
48268;SDS011;34088;52.232;5.196;2023-12-22T03:29:10;21.45;;;3.22;;
48268;SDS011;34088;52.232;5.196;2023-12-22T03:31:35;26.73;;;4.20;;
48268;SDS011;34088;52.232;5.196;2023-12-22T03:34:00;12.88;;;2.30;;
48268;SDS011;34088;52.232;5.196;2023-12-22T03:36:26;15.13;;;2.63;;
48268;SDS011;34088;52.232;5.196;2023-12-22T03:38:51;11.47;;;2.10;;
48268;SDS011;34088;52.232;5.196;2023-12-22T03:41:16;10.23;;;1.87;;
48268;SDS011;34088;52.232;5.196;2023-12-22T03:43:41;10.07;;;1.40;;
48268;SDS011;34088;52.232;5.196;2023-12-22T03:46:07;11.23;;;3.33;;
48268;SDS011;34088;52.232;5.196;2023-12-22T03:48:32;11.90;;;2.33;;
48268;SDS011;34088;52.232;5.196;2023-12-22T03:50:58;10.93;;;2.00;;
48268;SDS011;34088;52.232;5.196;2023-12-22T03:53:23;11.18;;;1.73;;
48268;SDS011;34088;52.232;5.196;2023-12-22T03:55:48;13.17;;;2.13;;
48268;SDS011;34088;52.232;5.196;2023-12-22T03:58:13;9.65;;;1.88;;
48268;SDS011;34088;52.232;5.196;2023-12-22T04:00:39;13.33;;;2.30;;
48268;SDS011;34088;52.232;5.196;2023-12-22T04:03:04;16.50;;;2.00;;
48268;SDS011;34088;52.232;5.196;2023-12-22T04:05:29;13.13;;;2.27;;
48268;SDS011;34088;52.232;5.196;2023-12-22T04:07:55;13.73;;;2.85;;
48268;SDS011;34088;52.232;5.196;2023-12-22T04:10:20;14.60;;;2.23;;
48268;SDS011;34088;52.232;5.196;2023-12-22T04:12:45;15.50;;;2.77;;
48268;SDS011;34088;52.232;5.196;2023-12-22T04:15:10;19.23;;;3.13;;
48268;SDS011;34088;52.232;5.196;2023-12-22T04:17:36;22.47;;;3.13;;
48268;SDS011;34088;52.232;5.196;2023-12-22T04:20:01;17.53;;;2.83;;
48268;SDS011;34088;52.232;5.196;2023-12-22T04:22:27;17.75;;;3.00;;
48268;SDS011;34088;52.232;5.196;2023-12-22T04:24:52;16.30;;;3.23;;
48268;SDS011;34088;52.232;5.196;2023-12-22T04:27:17;22.10;;;3.43;;
48268;SDS011;34088;52.232;5.196;2023-12-22T04:29:42;24.70;;;3.55;;
48268;SDS011;34088;52.232;5.196;2023-12-22T04:32:08;22.20;;;3.67;;
48268;SDS011;34088;52.232;5.196;2023-12-22T04:34:34;24.03;;;3.70;;
48268;SDS011;34088;52.232;5.196;2023-12-22T04:36:59;28.13;;;3.88;;
48268;SDS011;34088;52.232;5.196;2023-12-22T04:39:24;22.27;;;4.40;;
48268;SDS011;34088;52.232;5.196;2023-12-22T04:41:49;24.83;;;4.20;;
48268;SDS011;34088;52.232;5.196;2023-12-22T04:44:15;24.93;;;3.90;;
48268;SDS011;34088;52.232;5.196;2023-12-22T04:46:40;24.33;;;4.22;;
48268;SDS011;34088;52.232;5.196;2023-12-22T04:49:05;24.20;;;4.20;;
48268;SDS011;34088;52.232;5.196;2023-12-22T04:51:30;26.30;;;4.10;;
48268;SDS011;34088;52.232;5.196;2023-12-22T04:53:56;31.27;;;4.70;;
48268;SDS011;34088;52.232;5.196;2023-12-22T04:56:21;30.07;;;4.47;;
48268;SDS011;34088;52.232;5.196;2023-12-22T04:58:46;27.70;;;4.53;;
48268;SDS011;34088;52.232;5.196;2023-12-22T05:01:12;28.13;;;4.73;;
48268;SDS011;34088;52.232;5.196;2023-12-22T05:03:37;30.30;;;4.33;;
48268;SDS011;34088;52.232;5.196;2023-12-22T05:06:02;31.77;;;4.50;;
48268;SDS011;34088;52.232;5.196;2023-12-22T05:08:29;20.17;;;3.47;;
48268;SDS011;34088;52.232;5.196;2023-12-22T05:10:54;34.00;;;4.23;;
48268;SDS011;34088;52.232;5.196;2023-12-22T05:13:19;30.43;;;4.73;;
48268;SDS011;34088;52.232;5.196;2023-12-22T05:15:44;20.67;;;3.77;;
48268;SDS011;34088;52.232;5.196;2023-12-22T05:18:10;25.55;;;4.15;;
48268;SDS011;34088;52.232;5.196;2023-12-22T05:20:35;23.85;;;3.67;;
48268;SDS011;34088;52.232;5.196;2023-12-22T05:23:01;21.17;;;4.05;;
48268;SDS011;34088;52.232;5.196;2023-12-22T05:25:26;23.20;;;3.37;;
48268;SDS011;34088;52.232;5.196;2023-12-22T05:27:51;21.75;;;3.95;;
48268;SDS011;34088;52.232;5.196;2023-12-22T05:30:17;17.30;;;3.30;;
48268;SDS011;34088;52.232;5.196;2023-12-22T05:32:42;18.73;;;3.28;;
48268;SDS011;34088;52.232;5.196;2023-12-22T05:35:09;19.45;;;3.00;;
48268;SDS011;34088;52.232;5.196;2023-12-22T05:37:35;15.93;;;3.03;;
48268;SDS011;34088;52.232;5.196;2023-12-22T05:40:00;15.27;;;3.07;;
48268;SDS011;34088;52.232;5.196;2023-12-22T05:42:25;22.27;;;3.73;;
48268;SDS011;34088;52.232;5.196;2023-12-22T05:44:51;21.27;;;3.23;;
48268;SDS011;34088;52.232;5.196;2023-12-22T05:47:16;16.75;;;2.30;;
48268;SDS011;34088;52.232;5.196;2023-12-22T05:49:42;16.15;;;2.97;;
48268;SDS011;34088;52.232;5.196;2023-12-22T05:52:08;17.48;;;3.30;;
48268;SDS011;34088;52.232;5.196;2023-12-22T05:54:34;18.90;;;2.92;;
48268;SDS011;34088;52.232;5.196;2023-12-22T05:57:00;16.20;;;3.00;;
48268;SDS011;34088;52.232;5.196;2023-12-22T05:59:25;21.90;;;3.43;;
48268;SDS011;34088;52.232;5.196;2023-12-22T06:01:55;19.88;;;3.55;;
48268;SDS011;34088;52.232;5.196;2023-12-22T06:04:20;20.45;;;3.40;;
48268;SDS011;34088;52.232;5.196;2023-12-22T06:06:46;15.23;;;2.87;;
48268;SDS011;34088;52.232;5.196;2023-12-22T06:09:11;23.67;;;3.77;;
48268;SDS011;34088;52.232;5.196;2023-12-22T06:11:38;21.85;;;3.15;;
48268;SDS011;34088;52.232;5.196;2023-12-22T06:14:04;24.77;;;4.18;;
48268;SDS011;34088;52.232;5.196;2023-12-22T06:16:30;26.60;;;3.70;;
48268;SDS011;34088;52.232;5.196;2023-12-22T06:21:20;22.95;;;4.03;;
48268;SDS011;34088;52.232;5.196;2023-12-22T06:23:46;17.45;;;3.13;;
48268;SDS011;34088;52.232;5.196;2023-12-22T06:26:11;29.30;;;4.40;;
48268;SDS011;34088;52.232;5.196;2023-12-22T06:28:36;23.48;;;3.95;;
48268;SDS011;34088;52.232;5.196;2023-12-22T06:31:03;22.88;;;4.28;;
48268;SDS011;34088;52.232;5.196;2023-12-22T06:33:29;26.85;;;4.28;;
48268;SDS011;34088;52.232;5.196;2023-12-22T06:35:54;26.15;;;4.07;;
48268;SDS011;34088;52.232;5.196;2023-12-22T06:38:20;23.40;;;3.80;;
48268;SDS011;34088;52.232;5.196;2023-12-22T06:40:45;22.55;;;4.22;;
48268;SDS011;34088;52.232;5.196;2023-12-22T06:43:12;24.23;;;4.38;;
48268;SDS011;34088;52.232;5.196;2023-12-22T06:45:37;23.20;;;3.92;;
48268;SDS011;34088;52.232;5.196;2023-12-22T06:48:05;23.98;;;3.95;;
48268;SDS011;34088;52.232;5.196;2023-12-22T06:50:30;25.02;;;4.50;;
48268;SDS011;34088;52.232;5.196;2023-12-22T06:52:56;29.23;;;4.13;;
48268;SDS011;34088;52.232;5.196;2023-12-22T06:55:21;27.65;;;4.05;;
48268;SDS011;34088;52.232;5.196;2023-12-22T06:57:46;22.87;;;4.60;;
48268;SDS011;34088;52.232;5.196;2023-12-22T07:00:12;20.03;;;3.90;;
48268;SDS011;34088;52.232;5.196;2023-12-22T07:02:37;26.20;;;4.72;;
48268;SDS011;34088;52.232;5.196;2023-12-22T07:07:34;27.13;;;4.68;;
48268;SDS011;34088;52.232;5.196;2023-12-22T07:10:00;28.58;;;4.70;;
48268;SDS011;34088;52.232;5.196;2023-12-22T07:12:25;37.70;;;5.57;;
48268;SDS011;34088;52.232;5.196;2023-12-22T07:14:50;26.85;;;5.15;;
48268;SDS011;34088;52.232;5.196;2023-12-22T07:17:16;32.50;;;5.13;;
48268;SDS011;34088;52.232;5.196;2023-12-22T07:19:41;29.35;;;5.28;;
48268;SDS011;34088;52.232;5.196;2023-12-22T07:22:06;34.75;;;4.85;;
48268;SDS011;34088;52.232;5.196;2023-12-22T07:24:32;35.97;;;6.20;;
48268;SDS011;34088;52.232;5.196;2023-12-22T07:26:57;36.60;;;5.83;;
48268;SDS011;34088;52.232;5.196;2023-12-22T07:29:22;34.55;;;5.40;;
48268;SDS011;34088;52.232;5.196;2023-12-22T07:31:48;48.95;;;13.73;;
48268;SDS011;34088;52.232;5.196;2023-12-22T07:34:13;37.13;;;6.63;;
48268;SDS011;34088;52.232;5.196;2023-12-22T07:39:04;22.40;;;4.60;;
48268;SDS011;34088;52.232;5.196;2023-12-22T07:41:31;26.88;;;4.30;;
48268;SDS011;34088;52.232;5.196;2023-12-22T07:43:56;33.73;;;5.10;;
48268;SDS011;34088;52.232;5.196;2023-12-22T07:48:47;35.08;;;5.78;;
48268;SDS011;34088;52.232;5.196;2023-12-22T07:51:13;30.83;;;5.50;;
48268;SDS011;34088;52.232;5.196;2023-12-22T07:53:38;31.90;;;5.88;;
48268;SDS011;34088;52.232;5.196;2023-12-22T07:56:04;35.20;;;5.13;;
48268;SDS011;34088;52.232;5.196;2023-12-22T07:58:30;36.60;;;5.75;;
48268;SDS011;34088;52.232;5.196;2023-12-22T08:00:56;41.97;;;7.82;;
48268;SDS011;34088;52.232;5.196;2023-12-22T08:03:22;33.40;;;6.38;;
48268;SDS011;34088;52.232;5.196;2023-12-22T08:05:47;32.00;;;6.23;;
48268;SDS011;34088;52.232;5.196;2023-12-22T08:08:13;37.77;;;6.00;;
48268;SDS011;34088;52.232;5.196;2023-12-22T08:10:38;42.30;;;6.87;;
48268;SDS011;34088;52.232;5.196;2023-12-22T08:13:03;44.90;;;6.30;;
48268;SDS011;34088;52.232;5.196;2023-12-22T08:17:54;39.07;;;5.87;;
48268;SDS011;34088;52.232;5.196;2023-12-22T08:20:19;26.75;;;4.97;;
48268;SDS011;34088;52.232;5.196;2023-12-22T08:22:46;32.33;;;5.13;;
48268;SDS011;34088;52.232;5.196;2023-12-22T08:25:15;23.75;;;4.15;;
48268;SDS011;34088;52.232;5.196;2023-12-22T08:27:42;24.38;;;4.82;;
48268;SDS011;34088;52.232;5.196;2023-12-22T08:30:08;24.50;;;4.10;;
48268;SDS011;34088;52.232;5.196;2023-12-22T08:32:34;24.98;;;4.00;;
48268;SDS011;34088;52.232;5.196;2023-12-22T08:34:59;24.95;;;4.00;;
48268;SDS011;34088;52.232;5.196;2023-12-22T08:37:24;21.93;;;3.80;;
48268;SDS011;34088;52.232;5.196;2023-12-22T08:39:50;19.93;;;3.87;;
48268;SDS011;34088;52.232;5.196;2023-12-22T08:44:41;25.58;;;4.35;;
48268;SDS011;34088;52.232;5.196;2023-12-22T08:47:07;33.28;;;6.38;;
48268;SDS011;34088;52.232;5.196;2023-12-22T08:51:57;30.20;;;4.97;;
48268;SDS011;34088;52.232;5.196;2023-12-22T08:54:22;32.23;;;5.80;;
48268;SDS011;34088;52.232;5.196;2023-12-22T08:56:48;26.37;;;5.20;;
48268;SDS011;34088;52.232;5.196;2023-12-22T08:59:13;31.07;;;6.53;;
48268;SDS011;34088;52.232;5.196;2023-12-22T09:01:38;30.50;;;6.75;;
48268;SDS011;34088;52.232;5.196;2023-12-22T09:04:06;34.33;;;8.27;;
48268;SDS011;34088;52.232;5.196;2023-12-22T09:06:31;35.67;;;10.90;;
48268;SDS011;34088;52.232;5.196;2023-12-22T09:11:22;17.10;;;3.08;;
48268;SDS011;34088;52.232;5.196;2023-12-22T09:13:48;18.20;;;3.42;;
48268;SDS011;34088;52.232;5.196;2023-12-22T09:16:13;12.50;;;2.47;;
48268;SDS011;34088;52.232;5.196;2023-12-22T09:18:41;11.32;;;2.30;;
48268;SDS011;34088;52.232;5.196;2023-12-22T09:21:07;7.47;;;1.20;;
48268;SDS011;34088;52.232;5.196;2023-12-22T09:23:33;6.72;;;1.45;;
48268;SDS011;34088;52.232;5.196;2023-12-22T09:25:58;6.57;;;1.13;;
48268;SDS011;34088;52.232;5.196;2023-12-22T09:28:23;5.07;;;0.98;;
48268;SDS011;34088;52.232;5.196;2023-12-22T09:30:49;5.57;;;1.35;;
48268;SDS011;34088;52.232;5.196;2023-12-22T09:33:14;6.00;;;1.20;;
48268;SDS011;34088;52.232;5.196;2023-12-22T09:35:40;8.82;;;1.58;;
48268;SDS011;34088;52.232;5.196;2023-12-22T09:38:07;10.90;;;1.70;;
48268;SDS011;34088;52.232;5.196;2023-12-22T09:40:34;10.40;;;1.98;;
48268;SDS011;34088;52.232;5.196;2023-12-22T09:43:01;15.30;;;2.60;;
48268;SDS011;34088;52.232;5.196;2023-12-22T09:45:27;15.50;;;3.67;;
48268;SDS011;34088;52.232;5.196;2023-12-22T09:47:54;23.70;;;3.78;;
48268;SDS011;34088;52.232;5.196;2023-12-22T09:50:21;12.75;;;3.38;;
48268;SDS011;34088;52.232;5.196;2023-12-22T09:52:46;16.95;;;3.60;;
48268;SDS011;34088;52.232;5.196;2023-12-22T09:55:15;15.65;;;2.88;;
48268;SDS011;34088;52.232;5.196;2023-12-22T09:57:41;13.52;;;3.25;;
48268;SDS011;34088;52.232;5.196;2023-12-22T10:00:10;16.23;;;3.05;;
48268;SDS011;34088;52.232;5.196;2023-12-22T10:02:37;13.90;;;2.35;;
48268;SDS011;34088;52.232;5.196;2023-12-22T10:05:04;16.40;;;3.00;;
48268;SDS011;34088;52.232;5.196;2023-12-22T10:07:30;15.23;;;2.87;;
48268;SDS011;34088;52.232;5.196;2023-12-22T10:09:56;13.20;;;2.92;;
48268;SDS011;34088;52.232;5.196;2023-12-22T10:12:22;14.38;;;2.53;;
48268;SDS011;34088;52.232;5.196;2023-12-22T10:14:49;16.58;;;2.97;;
48268;SDS011;34088;52.232;5.196;2023-12-22T10:17:15;17.08;;;3.05;;
48268;SDS011;34088;52.232;5.196;2023-12-22T10:19:41;12.57;;;2.22;;
48268;SDS011;34088;52.232;5.196;2023-12-22T10:22:07;14.80;;;2.87;;
48268;SDS011;34088;52.232;5.196;2023-12-22T10:27:07;16.75;;;2.22;;
48268;SDS011;34088;52.232;5.196;2023-12-22T10:29:33;17.63;;;3.40;;
48268;SDS011;34088;52.232;5.196;2023-12-22T10:32:02;13.27;;;2.63;;
48268;SDS011;34088;52.232;5.196;2023-12-22T10:34:29;20.05;;;3.05;;
48268;SDS011;34088;52.232;5.196;2023-12-22T10:36:56;14.73;;;2.85;;
48268;SDS011;34088;52.232;5.196;2023-12-22T10:39:21;15.07;;;2.50;;
48268;SDS011;34088;52.232;5.196;2023-12-22T10:41:47;10.25;;;2.53;;
48268;SDS011;34088;52.232;5.196;2023-12-22T10:44:14;14.00;;;2.22;;
48268;SDS011;34088;52.232;5.196;2023-12-22T10:46:42;12.02;;;2.10;;
48268;SDS011;34088;52.232;5.196;2023-12-22T10:49:07;14.50;;;2.35;;
48268;SDS011;34088;52.232;5.196;2023-12-22T10:53:58;11.98;;;2.58;;
48268;SDS011;34088;52.232;5.196;2023-12-22T10:56:27;14.73;;;2.50;;
48268;SDS011;34088;52.232;5.196;2023-12-22T10:58:53;12.90;;;2.10;;
48268;SDS011;34088;52.232;5.196;2023-12-22T11:01:18;13.93;;;2.35;;
48268;SDS011;34088;52.232;5.196;2023-12-22T11:03:47;18.88;;;3.05;;
48268;SDS011;34088;52.232;5.196;2023-12-22T11:06:16;11.93;;;2.50;;
48268;SDS011;34088;52.232;5.196;2023-12-22T11:08:43;12.70;;;2.38;;
48268;SDS011;34088;52.232;5.196;2023-12-22T11:14:05;10.93;;;2.00;;
48268;SDS011;34088;52.232;5.196;2023-12-22T11:16:31;12.48;;;2.20;;
48268;SDS011;34088;52.232;5.196;2023-12-22T11:19:02;17.50;;;2.38;;
48268;SDS011;34088;52.232;5.196;2023-12-22T11:21:28;13.73;;;2.20;;
48268;SDS011;34088;52.232;5.196;2023-12-22T11:23:55;12.80;;;2.20;;
48268;SDS011;34088;52.232;5.196;2023-12-22T11:26:22;14.70;;;2.80;;
48268;SDS011;34088;52.232;5.196;2023-12-22T11:28:48;14.82;;;2.47;;
48268;SDS011;34088;52.232;5.196;2023-12-22T11:31:16;16.55;;;2.55;;
48268;SDS011;34088;52.232;5.196;2023-12-22T11:33:49;16.65;;;2.55;;
48268;SDS011;34088;52.232;5.196;2023-12-22T11:36:16;13.25;;;2.10;;
48268;SDS011;34088;52.232;5.196;2023-12-22T11:38:44;16.92;;;2.38;;
48268;SDS011;34088;52.232;5.196;2023-12-22T11:41:12;12.57;;;2.22;;
48268;SDS011;34088;52.232;5.196;2023-12-22T11:43:42;15.48;;;2.97;;
48268;SDS011;34088;52.232;5.196;2023-12-22T11:46:09;10.48;;;1.70;;
48268;SDS011;34088;52.232;5.196;2023-12-22T11:48:34;11.05;;;1.85;;
48268;SDS011;34088;52.232;5.196;2023-12-22T11:51:02;15.25;;;2.67;;
48268;SDS011;34088;52.232;5.196;2023-12-22T11:53:38;11.55;;;1.85;;
48268;SDS011;34088;52.232;5.196;2023-12-22T11:56:03;15.48;;;2.50;;
48268;SDS011;34088;52.232;5.196;2023-12-22T11:58:45;14.60;;;2.65;;
48268;SDS011;34088;52.232;5.196;2023-12-22T12:01:20;14.35;;;2.55;;
48268;SDS011;34088;52.232;5.196;2023-12-22T12:03:50;12.10;;;2.30;;
48268;SDS011;34088;52.232;5.196;2023-12-22T12:08:52;14.07;;;2.35;;
48268;SDS011;34088;52.232;5.196;2023-12-22T12:13:44;15.32;;;2.47;;
48268;SDS011;34088;52.232;5.196;2023-12-22T12:16:11;9.68;;;2.17;;
48268;SDS011;34088;52.232;5.196;2023-12-22T12:18:38;16.02;;;2.40;;
48268;SDS011;34088;52.232;5.196;2023-12-22T12:21:05;17.60;;;2.72;;
48268;SDS011;34088;52.232;5.196;2023-12-22T12:23:32;13.13;;;2.42;;
48268;SDS011;34088;52.232;5.196;2023-12-22T12:25:57;12.30;;;2.33;;
48268;SDS011;34088;52.232;5.196;2023-12-22T12:28:29;13.40;;;2.13;;
48268;SDS011;34088;52.232;5.196;2023-12-22T12:30:56;11.40;;;2.40;;
48268;SDS011;34088;52.232;5.196;2023-12-22T12:33:24;12.05;;;2.35;;
48268;SDS011;34088;52.232;5.196;2023-12-22T12:35:50;14.48;;;2.67;;
48268;SDS011;34088;52.232;5.196;2023-12-22T12:38:18;11.95;;;2.13;;
48268;SDS011;34088;52.232;5.196;2023-12-22T12:40:46;14.65;;;2.42;;
48268;SDS011;34088;52.232;5.196;2023-12-22T12:43:15;14.18;;;2.70;;
48268;SDS011;34088;52.232;5.196;2023-12-22T12:45:42;15.63;;;2.35;;
48268;SDS011;34088;52.232;5.196;2023-12-22T12:48:07;13.32;;;2.95;;
48268;SDS011;34088;52.232;5.196;2023-12-22T12:52:58;15.57;;;2.40;;
48268;SDS011;34088;52.232;5.196;2023-12-22T12:55:24;14.05;;;2.78;;
48268;SDS011;34088;52.232;5.196;2023-12-22T12:57:50;11.50;;;2.20;;
48268;SDS011;34088;52.232;5.196;2023-12-22T13:00:26;14.45;;;2.42;;
48268;SDS011;34088;52.232;5.196;2023-12-22T13:03:01;12.35;;;2.47;;
48268;SDS011;34088;52.232;5.196;2023-12-22T13:05:31;10.77;;;2.03;;
48268;SDS011;34088;52.232;5.196;2023-12-22T13:08:06;13.63;;;2.47;;
48268;SDS011;34088;52.232;5.196;2023-12-22T13:10:36;13.98;;;3.47;;
48268;SDS011;34088;52.232;5.196;2023-12-22T13:13:02;10.85;;;2.22;;
48268;SDS011;34088;52.232;5.196;2023-12-22T13:17:53;14.30;;;2.78;;
48268;SDS011;34088;52.232;5.196;2023-12-22T13:20:19;12.02;;;2.15;;
48268;SDS011;34088;52.232;5.196;2023-12-22T13:22:45;7.88;;;1.52;;
48268;SDS011;34088;52.232;5.196;2023-12-22T13:25:11;11.70;;;1.77;;
48268;SDS011;34088;52.232;5.196;2023-12-22T13:27:46;12.38;;;2.20;;
48268;SDS011;34088;52.232;5.196;2023-12-22T13:30:13;9.63;;;1.70;;
48268;SDS011;34088;52.232;5.196;2023-12-22T13:32:57;14.55;;;2.60;;
48268;SDS011;34088;52.232;5.196;2023-12-22T13:35:23;12.07;;;2.70;;
48268;SDS011;34088;52.232;5.196;2023-12-22T13:37:49;11.07;;;2.40;;
48268;SDS011;34088;52.232;5.196;2023-12-22T13:40:15;12.23;;;1.70;;
48268;SDS011;34088;52.232;5.196;2023-12-22T13:42:40;12.40;;;2.65;;
48268;SDS011;34088;52.232;5.196;2023-12-22T13:45:10;8.20;;;1.75;;
48268;SDS011;34088;52.232;5.196;2023-12-22T13:47:39;10.45;;;2.20;;
48268;SDS011;34088;52.232;5.196;2023-12-22T13:50:13;17.95;;;3.45;;
48268;SDS011;34088;52.232;5.196;2023-12-22T13:52:41;11.27;;;2.50;;
48268;SDS011;34088;52.232;5.196;2023-12-22T13:55:12;16.17;;;2.67;;
48268;SDS011;34088;52.232;5.196;2023-12-22T13:57:38;9.85;;;1.95;;
48268;SDS011;34088;52.232;5.196;2023-12-22T14:00:46;23.92;;;3.85;;
48268;SDS011;34088;52.232;5.196;2023-12-22T14:02:56;12.18;;;2.28;;
48268;SDS011;34088;52.232;5.196;2023-12-22T14:05:22;15.95;;;2.17;;
48268;SDS011;34088;52.232;5.196;2023-12-22T14:10:15;19.50;;;2.88;;
48268;SDS011;34088;52.232;5.196;2023-12-22T14:12:40;13.70;;;2.65;;
48268;SDS011;34088;52.232;5.196;2023-12-22T14:19:57;17.60;;;3.08;;
48268;SDS011;34088;52.232;5.196;2023-12-22T14:22:22;17.50;;;2.55;;
48268;SDS011;34088;52.232;5.196;2023-12-22T14:27:13;18.00;;;3.30;;
48268;SDS011;34088;52.232;5.196;2023-12-22T14:29:38;12.57;;;2.87;;
48268;SDS011;34088;52.232;5.196;2023-12-22T14:32:05;15.15;;;2.35;;
48268;SDS011;34088;52.232;5.196;2023-12-22T14:34:33;19.25;;;3.08;;
48268;SDS011;34088;52.232;5.196;2023-12-22T14:36:58;19.02;;;2.90;;
48268;SDS011;34088;52.232;5.196;2023-12-22T14:39:24;16.85;;;2.13;;
48268;SDS011;34088;52.232;5.196;2023-12-22T14:41:50;18.45;;;2.85;;
48268;SDS011;34088;52.232;5.196;2023-12-22T14:46:40;16.30;;;2.47;;
48268;SDS011;34088;52.232;5.196;2023-12-22T14:49:06;15.88;;;2.85;;
48268;SDS011;34088;52.232;5.196;2023-12-22T14:54:04;17.65;;;3.25;;
48268;SDS011;34088;52.232;5.196;2023-12-22T14:56:30;18.25;;;3.20;;
48268;SDS011;34088;52.232;5.196;2023-12-22T14:58:55;23.07;;;4.37;;
48268;SDS011;34088;52.232;5.196;2023-12-22T15:01:20;20.83;;;3.45;;
48268;SDS011;34088;52.232;5.196;2023-12-22T15:03:46;15.63;;;2.88;;
48268;SDS011;34088;52.232;5.196;2023-12-22T15:08:36;20.42;;;3.67;;
48268;SDS011;34088;52.232;5.196;2023-12-22T15:11:02;16.42;;;3.05;;
48268;SDS011;34088;52.232;5.196;2023-12-22T15:13:27;23.05;;;3.47;;
48268;SDS011;34088;52.232;5.196;2023-12-22T15:15:52;20.40;;;4.10;;
48268;SDS011;34088;52.232;5.196;2023-12-22T15:18:18;24.97;;;4.03;;
48268;SDS011;34088;52.232;5.196;2023-12-22T15:23:08;13.27;;;2.60;;
48268;SDS011;34088;52.232;5.196;2023-12-22T15:27:59;17.67;;;3.20;;
48268;SDS011;34088;52.232;5.196;2023-12-22T15:30:24;17.70;;;3.27;;
48268;SDS011;34088;52.232;5.196;2023-12-22T15:32:50;17.48;;;3.35;;
48268;SDS011;34088;52.232;5.196;2023-12-22T15:35:15;21.58;;;2.90;;
48268;SDS011;34088;52.232;5.196;2023-12-22T15:37:41;23.27;;;3.53;;
48268;SDS011;34088;52.232;5.196;2023-12-22T15:40:06;26.63;;;4.13;;
48268;SDS011;34088;52.232;5.196;2023-12-22T15:42:35;20.48;;;3.65;;
48268;SDS011;34088;52.232;5.196;2023-12-22T15:45:00;17.57;;;3.73;;
48268;SDS011;34088;52.232;5.196;2023-12-22T15:47:25;21.90;;;3.90;;
48268;SDS011;34088;52.232;5.196;2023-12-22T15:52:16;15.80;;;3.30;;
48268;SDS011;34088;52.232;5.196;2023-12-22T15:54:41;21.97;;;3.67;;
48268;SDS011;34088;52.232;5.196;2023-12-22T15:59:32;23.15;;;5.32;;
48268;SDS011;34088;52.232;5.196;2023-12-22T16:01:57;18.35;;;3.13;;
48268;SDS011;34088;52.232;5.196;2023-12-22T16:06:48;19.00;;;3.53;;
48268;SDS011;34088;52.232;5.196;2023-12-22T16:11:38;24.47;;;4.40;;
48268;SDS011;34088;52.232;5.196;2023-12-22T16:14:04;23.65;;;3.75;;
48268;SDS011;34088;52.232;5.196;2023-12-22T16:16:29;26.57;;;4.17;;
48268;SDS011;34088;52.232;5.196;2023-12-22T16:18:54;20.03;;;3.40;;
48268;SDS011;34088;52.232;5.196;2023-12-22T16:23:45;17.73;;;3.17;;
48268;SDS011;34088;52.232;5.196;2023-12-22T16:28:35;24.17;;;3.47;;
48268;SDS011;34088;52.232;5.196;2023-12-22T16:33:26;23.05;;;3.67;;
48268;SDS011;34088;52.232;5.196;2023-12-22T16:38:17;25.37;;;4.30;;
48268;SDS011;34088;52.232;5.196;2023-12-22T16:43:09;23.73;;;4.38;;
48268;SDS011;34088;52.232;5.196;2023-12-22T16:45:34;22.55;;;3.95;;
48268;SDS011;34088;52.232;5.196;2023-12-22T16:50:26;13.50;;;2.97;;
48268;SDS011;34088;52.232;5.196;2023-12-22T16:55:16;18.58;;;3.97;;
48268;SDS011;34088;52.232;5.196;2023-12-22T17:00:08;16.85;;;2.85;;
48268;SDS011;34088;52.232;5.196;2023-12-22T17:02:34;24.77;;;4.25;;
48268;SDS011;34088;52.232;5.196;2023-12-22T17:07:26;19.27;;;3.65;;
48268;SDS011;34088;52.232;5.196;2023-12-22T17:12:16;18.50;;;3.30;;
48268;SDS011;34088;52.232;5.196;2023-12-22T17:14:41;24.70;;;3.75;;
48268;SDS011;34088;52.232;5.196;2023-12-22T17:17:07;20.42;;;4.25;;
48268;SDS011;34088;52.232;5.196;2023-12-22T17:19:32;18.95;;;3.75;;
48268;SDS011;34088;52.232;5.196;2023-12-22T17:24:22;16.33;;;4.00;;